»·PEaware :: WAT2489 KWHP-KEUG

WAT2489 :: KWHP-KEUG

FLIGHT INFORMATION

Flight Status: Arrived
Operator:
Walker Air Transport
More flights by this operator :: More flights under this callsign
Pilot: Graham D. (41507)
Aircraft: Unknown
(EPIC)
More flights by this aircraft type
Origin: KWHP Whiteman
United States
Destination: KEUG Mahlon Sweet
United States
More flights between these airports :: More routes between these airports
Route: WHP1 VNY GMN CSTRO CZQ RBL EUG
File this flight plan on PilotEdge
Remarks:
Altitude:
(Current/Filed)
30,000ft
Speed:
(Current/Filed)
302kts
Departed: 22-Oct-23 12:14 PM
Arrived: 22-Oct-23 02:29 PM
Distance/Time
Traveled:
632nm/2:15
Distance/Time
To Go:
Arrived

Flight Plot

Page will automatically refresh every two minutes.

Flight plan parsing failed; only flown route is shown


Map Options




Map Legend


Flown Route
Filed Route
Departure Airport
Arrival Airport
Navaid (VOR, NDB)
Fix

Horizontal Profiles

Position Reports

Time Latitude Longitude Heading Altitude Ground
Speed
22-Oct-23 11:59 34.259975 -118.412057 318 995ft 0kts
22-Oct-23 12:00 34.259975 -118.412057 318 995ft 0kts
22-Oct-23 12:01 34.259975 -118.412057 318 995ft 0kts
22-Oct-23 12:02 34.259975 -118.412057 318 995ft 0kts
22-Oct-23 12:03 34.259975 -118.412057 318 995ft 0kts
22-Oct-23 12:04 34.259975 -118.412057 318 995ft 0kts
22-Oct-23 12:05 34.259975 -118.412057 318 995ft 0kts
22-Oct-23 12:06 34.259975 -118.412057 318 995ft 0kts
22-Oct-23 12:07 34.259975 -118.412057 318 995ft 0kts
22-Oct-23 12:08 34.259975 -118.412057 318 995ft 0kts
22-Oct-23 12:09 34.260007 -118.412100 311 995ft 1kts
22-Oct-23 12:11 34.258189 -118.411628 139 982ft 16kts
22-Oct-23 12:11 34.255720 -118.408997 137 966ft 12kts
22-Oct-23 12:12 34.255546 -118.408879 168 965ft 2kts
22-Oct-23 12:13 34.266179 -118.421313 317 1300ft 133kts
22-Oct-23 12:14 34.274789 -118.466900 272 2879ft 148kts
22-Oct-23 12:15 34.272445 -118.517019 227 5176ft 173kts
22-Oct-23 12:16 34.233521 -118.489451 86 7378ft 214kts
22-Oct-23 12:17 34.273863 -118.487827 301 9005ft 214kts
22-Oct-23 12:18 34.311641 -118.544048 321 11399ft 212kts
22-Oct-23 12:19 34.363481 -118.580125 326 13577ft 218kts
22-Oct-23 12:20 34.417994 -118.614874 326 15489ft 223kts
22-Oct-23 12:21 34.473340 -118.650056 324 17265ft 227kts
22-Oct-23 12:22 34.530034 -118.686149 324 18923ft 231kts
22-Oct-23 12:23 34.587484 -118.722764 324 20383ft 234kts
22-Oct-23 12:24 34.645470 -118.759786 324 21659ft 237kts
22-Oct-23 12:25 34.704351 -118.797440 323 22771ft 241kts
22-Oct-23 12:26 34.763864 -118.835571 323 23753ft 243kts
22-Oct-23 12:27 34.824605 -118.873135 325 24635ft 247kts
22-Oct-23 12:28 34.887004 -118.909143 325 25407ft 250kts
22-Oct-23 12:29 34.950115 -118.945584 325 26197ft 252kts
22-Oct-23 12:30 35.013822 -118.982427 324 26870ft 255kts
22-Oct-23 12:31 35.078098 -119.019664 324 27472ft 257kts
22-Oct-23 12:32 35.142674 -119.057152 324 28066ft 257kts
22-Oct-23 12:33 35.207011 -119.094553 323 28650ft 254kts
22-Oct-23 12:34 35.270488 -119.131522 323 29230ft 251kts
22-Oct-23 12:35 35.333144 -119.168089 322 29806ft 248kts
22-Oct-23 12:36 35.395645 -119.204652 323 30030ft 257kts
22-Oct-23 12:37 35.463105 -119.241023 330 30012ft 275kts
22-Oct-23 12:38 35.536927 -119.270522 331 29988ft 283kts
22-Oct-23 12:39 35.611998 -119.300347 331 29987ft 285kts
22-Oct-23 12:40 35.687595 -119.330438 331 29987ft 287kts
22-Oct-23 12:41 35.763278 -119.360632 331 29986ft 287kts
22-Oct-23 12:42 35.839379 -119.391052 331 29986ft 288kts
22-Oct-23 12:43 35.915287 -119.421456 331 29994ft 288kts
22-Oct-23 12:44 35.991079 -119.451874 331 30001ft 287kts
22-Oct-23 12:45 36.067248 -119.482507 331 30004ft 288kts
22-Oct-23 12:46 36.143371 -119.513182 331 30001ft 289kts
22-Oct-23 12:47 36.219752 -119.544027 331 30001ft 289kts
22-Oct-23 12:48 36.295886 -119.574833 331 30001ft 289kts
22-Oct-23 12:49 36.372281 -119.605810 331 30001ft 289kts
22-Oct-23 12:50 36.448932 -119.636955 331 30001ft 290kts
22-Oct-23 12:51 36.525560 -119.668159 331 30011ft 292kts
22-Oct-23 12:52 36.602886 -119.699708 331 30006ft 294kts
22-Oct-23 12:53 36.681040 -119.731668 332 30003ft 296kts
22-Oct-23 12:54 36.759234 -119.763704 332 30003ft 298kts
22-Oct-23 12:55 36.838107 -119.796094 332 30003ft 299kts
22-Oct-23 12:56 36.913401 -119.836093 321 30003ft 291kts
22-Oct-23 12:57 36.983836 -119.886384 321 30002ft 293kts
22-Oct-23 12:58 37.054766 -119.937329 322 30003ft 295kts
22-Oct-23 12:59 37.125603 -119.988322 322 29998ft 296kts
22-Oct-23 13:00 37.197045 -120.039844 322 30008ft 295kts
22-Oct-23 13:01 37.268140 -120.091246 322 30013ft 295kts
22-Oct-23 13:02 37.339322 -120.142818 322 30009ft 296kts
22-Oct-23 13:03 37.410792 -120.194716 322 30004ft 298kts
22-Oct-23 13:04 37.482574 -120.246955 323 29997ft 299kts
22-Oct-23 13:05 37.554305 -120.299276 323 29997ft 300kts
22-Oct-23 13:06 37.626667 -120.352174 323 29997ft 301kts
22-Oct-23 13:07 37.698694 -120.404951 323 29997ft 301kts
22-Oct-23 13:08 37.771297 -120.458268 323 29997ft 302kts
22-Oct-23 13:09 37.843627 -120.511499 323 30002ft 302kts
22-Oct-23 13:10 37.916269 -120.565100 323 30005ft 302kts
22-Oct-23 13:11 37.988141 -120.618245 323 30006ft 302kts
22-Oct-23 13:12 38.060812 -120.672109 322 30005ft 305kts
22-Oct-23 13:13 38.134419 -120.726790 323 29999ft 307kts
22-Oct-23 13:14 38.208106 -120.781660 323 29999ft 308kts
22-Oct-23 13:15 38.281650 -120.836549 322 30005ft 308kts
22-Oct-23 13:16 38.355372 -120.891711 322 30017ft 308kts
22-Oct-23 13:17 38.429073 -120.946985 322 30027ft 308kts
22-Oct-23 13:18 38.503025 -121.002626 322 29986ft 311kts
22-Oct-23 13:19 38.577118 -121.058416 322 30013ft 309kts
22-Oct-23 13:20 38.651282 -121.114412 322 29967ft 310kts
22-Oct-23 13:21 38.725709 -121.170769 322 29957ft 310kts
22-Oct-23 13:22 38.799854 -121.227090 322 29945ft 310kts
22-Oct-23 13:23 38.873966 -121.283490 322 29945ft 311kts
22-Oct-23 13:24 38.948437 -121.340307 323 29955ft 311kts
22-Oct-23 13:25 39.022748 -121.397130 323 29968ft 312kts
22-Oct-23 13:26 39.097283 -121.454281 323 29973ft 313kts
22-Oct-23 13:27 39.171828 -121.511564 323 29967ft 313kts
22-Oct-23 13:28 39.246303 -121.568948 323 29967ft 313kts
22-Oct-23 13:29 39.321108 -121.626723 323 29968ft 314kts
22-Oct-23 13:30 39.396046 -121.684755 323 29973ft 316kts
22-Oct-23 13:31 39.471675 -121.743467 323 29973ft 317kts
22-Oct-23 13:32 39.547207 -121.802255 323 29968ft 319kts
22-Oct-23 13:33 39.623204 -121.861557 323 29985ft 319kts
22-Oct-23 13:34 39.699270 -121.921076 323 30001ft 320kts
22-Oct-23 13:35 39.775631 -121.980966 323 29999ft 321kts
22-Oct-23 13:36 39.852208 -122.041191 323 29997ft 322kts
22-Oct-23 13:37 39.928650 -122.101468 323 29995ft 322kts
22-Oct-23 13:38 40.005184 -122.161978 323 29993ft 322kts
22-Oct-23 13:39 40.082073 -122.222931 323 29993ft 323kts
22-Oct-23 13:40 40.170071 -122.252676 346 29987ft 332kts
22-Oct-23 13:41 40.261171 -122.273739 346 29982ft 331kts
22-Oct-23 13:42 40.351862 -122.294745 346 29979ft 331kts
22-Oct-23 13:43 40.442504 -122.315789 347 29979ft 331kts
22-Oct-23 13:44 40.533339 -122.336941 347 29980ft 332kts
22-Oct-23 13:45 40.623917 -122.358090 347 29981ft 332kts
22-Oct-23 13:46 40.714834 -122.379379 347 29988ft 332kts
22-Oct-23 13:47 40.805729 -122.400720 348 29999ft 332kts
22-Oct-23 13:48 40.896609 -122.422116 348 30001ft 333kts
22-Oct-23 13:49 40.987761 -122.443635 348 30002ft 334kts
22-Oct-23 13:50 41.079583 -122.465374 348 30003ft 335kts
22-Oct-23 13:51 41.171321 -122.487155 349 29996ft 335kts
22-Oct-23 13:52 41.262644 -122.508897 349 29997ft 335kts
22-Oct-23 13:53 41.354620 -122.530863 349 29998ft 336kts
22-Oct-23 13:54 41.446609 -122.552888 349 29999ft 337kts
22-Oct-23 13:55 41.538752 -122.575024 349 30000ft 338kts
22-Oct-23 13:56 41.631248 -122.597299 349 30001ft 338kts
22-Oct-23 13:57 41.723939 -122.619688 350 30001ft 339kts
22-Oct-23 13:58 41.816972 -122.642228 350 30002ft 340kts
22-Oct-23 13:59 41.910212 -122.664885 349 30002ft 341kts
22-Oct-23 14:00 42.003375 -122.687587 349 29999ft 341kts
22-Oct-23 14:01 42.096706 -122.710401 349 29995ft 342kts
22-Oct-23 14:02 42.191825 -122.733739 349 29401ft 360kts
22-Oct-23 14:03 42.294045 -122.758841 349 27946ft 383kts
22-Oct-23 14:04 42.401413 -122.785387 349 26060ft 398kts
22-Oct-23 14:05 42.510980 -122.812487 349 24049ft 394kts
22-Oct-23 14:06 42.615761 -122.838490 350 22023ft 373kts
22-Oct-23 14:07 42.715402 -122.863341 349 20416ft 354kts
22-Oct-23 14:08 42.809859 -122.886968 349 19073ft 342kts
22-Oct-23 14:09 42.902857 -122.910279 349 17746ft 337kts
22-Oct-23 14:10 42.993930 -122.933214 350 16449ft 328kts
22-Oct-23 14:11 43.083085 -122.955703 350 15170ft 323kts
22-Oct-23 14:12 43.170508 -122.977863 350 13914ft 313kts
22-Oct-23 14:13 43.255060 -122.999329 350 12715ft 305kts
22-Oct-23 14:14 43.337659 -123.020362 350 11544ft 300kts
22-Oct-23 14:15 43.419622 -123.041284 349 10365ft 296kts
22-Oct-23 14:16 43.497369 -123.061180 349 9982ft 269kts
22-Oct-23 14:17 43.568542 -123.078698 350 9982ft 253kts
22-Oct-23 14:18 43.636884 -123.094911 350 9544ft 246kts
22-Oct-23 14:19 43.703518 -123.110826 350 8166ft 238kts
22-Oct-23 14:20 43.767772 -123.126159 350 6653ft 231kts
22-Oct-23 14:21 43.830785 -123.141220 351 5136ft 228kts
22-Oct-23 14:22 43.892576 -123.156035 351 3798ft 219kts
22-Oct-23 14:23 43.949124 -123.174656 334 3193ft 189kts
22-Oct-23 14:24 43.995152 -123.208011 333 2412ft 187kts
22-Oct-23 14:26 44.040481 -123.217641 357 1801ft 147kts
22-Oct-23 14:27 44.074176 -123.218213 354 1172ft 103kts
22-Oct-23 14:28 44.101494 -123.218639 354 646ft 96kts
22-Oct-23 14:29 44.120915 -123.217802 87 370ft 12kts
22-Oct-23 14:30 44.119970 -123.216955 181 370ft 11kts
22-Oct-23 14:31 44.116277 -123.216926 178 369ft 14kts

Navigation Log

Ident Type
Flight plan parsing failed, navigation log unavailable